Aeroporto :
LOGIN :

Iscrizione | Disclaimer

   EN    FR    IT 

 










Sommario :    VFR   VFR Marginale   IFR   IFR Intensivo   IFR Molto Intensivo
Visibilità : 
Base nubi : 
>= 8 km
>= 3000ft
5 / 8 km
1000 / 3000 ft
1500m / 5 km
500 / 1000 ft
800 / 1500m
200 / 500 ft
< 800m
< 200 ft
Simboli :   Temporali  Nebbia  Neve Forte  Precipitazioni Forti  Vento > 20 kt
SIGMETs :   Varie  Temporali  Ghiacco  Turbolenza  Onda orograficha  Ceneri Vulcaniche






- Altitudine del aeroporto : 46 ft
- Codice IATA : SNN


EINN - Shannon

ULTIMO METAR :
  • 151900Z 20016KT 9999 FEW010 FEW018CB BKN043 05/03 Q0984 NOSIG

METARs OBSOLETI :
  • 151830Z 19018KT 9999 FEW010 FEW018CB BKN035 05/02 Q0984 NOSIG
  • 151800Z 20015KT 9999 -SHRA FEW010 FEW018CB SCT022 BKN034 05/02 Q0983 NOSIG
  • 151730Z 18014KT 9999 FEW010 FEW018CB SCT250 05/02 Q0983 NOSIG
  • 151700Z 15011KT 9999 FEW010 FEW018CB SCT045 05/03 Q0983 NOSIG
  • 151630Z 12013KT 9999 VCSH FEW014 FEW018CB SCT110 05/02 Q0983 NOSIG

TAF AMD TAF EINN
Valido dal 15 a 18 ore il 16 a 18 ore UTC


151825Z 1518/1618 20015KT 9999 SCT014 BKN040
TEMPO 1518/1524 -SHRA SCT018CB
BECMG 1520/1522 22017G28KT
BECMG 1522/1524 28012KT
BECMG 1601/1603 20005KT



MetMap, La meteo Aeronautica in un colpo d'occhio ! - Copyright ORBIFLY Dicembre 2007 - Disclaimer

ORBIFLY MET'MAP TEAM :

Programmazione e sviluppo : Alexandra Zaïnal
Concezione : Baudouin d'Aumeries
Aiuto per la programmazione : Marc-Olivier Méhu
Supporto tecnico e logistico : Manuel Goepfert
Aiuto per la traduzione : Arnaldo La Scala

Contatto : metmap@orbifly.com




FONTI E CREDITI :

   NOAA